world map with KNA marked

KNA - Airport

This information may not be accurate or current and is not valid for navigation or flight planning. No warranty of fitness for any purpose is made or implied.

flag of Valparaísoflag of Chile

Donate via PayPal

Additional information is available on the NEW Great Circle Mapper

Location
City:  Viña del Mar, Valparaíso, Chile
Name:Viña del Mar Airport
ICAO / IATA:SCVM / KNA

Details
Type:Airport (Aerodrome, Airfield)
Use:Public/Civil
Latitude:32°56'59"S (-32.949721)
Longitude:71°28'43"W (-71.478610)
Elevation:461 ft (141 m)
Runways:1
Longest:5741 × 98 ft (1750 × 30 m)

Time
Timezone:UTC+30:08 (DST+33:08)
Local Time:

Weather
METAR:SCVM  141600Z 33013KT CAVOK 21/15 Q1015
TAF:SCVM  (expired)

Related Locations
Nearby:
Farthest:AKA: 12421 mi / 19989 km
Ankang, 61, CN

Find:

   beyond  
but within

Other Information
Maps:
Sources:

  


 


Great Circle Mapper   Great Circle Mapper
Great Circle Mapper FAQ   Great Circle Mapper FAQ
  Karl's Home Page
KLS²   KLS² Home
   GC on Facebook
Airlines of the World   Airlines of the World
Donate via PayPal


Copyright © 2004-2017, Karl L. Swartz. All rights reserved.
All trademarks mentioned herein belong to their respective owners.

Please see credits for attribution and copyright information.

Karl Swartz <karl@kls2.com>
  Powered by FreeBSD
Valid HTML 4.01!
Labeled with ICRA
hCard Microformat
Geo Microformat